sensor_id;sensor_type;location;lat;lon;timestamp;temperature;humidity
55036;DHT22;40936;53.008;6.556;2023-06-10T00:01:36;17.60;99.90
55036;DHT22;40936;53.008;6.556;2023-06-10T00:04:02;17.60;99.90
55036;DHT22;40936;53.008;6.556;2023-06-10T00:06:28;17.60;99.90
55036;DHT22;40936;53.008;6.556;2023-06-10T00:09:05;17.60;99.90
55036;DHT22;40936;53.008;6.556;2023-06-10T00:11:32;17.50;99.90
55036;DHT22;40936;53.008;6.556;2023-06-10T00:13:58;17.50;99.90
55036;DHT22;40936;53.008;6.556;2023-06-10T00:16:24;17.40;99.90
55036;DHT22;40936;53.008;6.556;2023-06-10T00:18:50;17.40;99.90
55036;DHT22;40936;53.008;6.556;2023-06-10T00:21:22;17.40;99.90
55036;DHT22;40936;53.008;6.556;2023-06-10T00:23:47;17.30;99.90
55036;DHT22;40936;53.008;6.556;2023-06-10T00:26:14;17.30;99.90
55036;DHT22;40936;53.008;6.556;2023-06-10T00:28:39;17.30;99.90
55036;DHT22;40936;53.008;6.556;2023-06-10T00:31:05;17.20;99.90
55036;DHT22;40936;53.008;6.556;2023-06-10T00:33:31;17.20;99.90
55036;DHT22;40936;53.008;6.556;2023-06-10T00:35:56;17.20;99.90
55036;DHT22;40936;53.008;6.556;2023-06-10T00:38:22;17.10;99.90
55036;DHT22;40936;53.008;6.556;2023-06-10T00:40:48;17.10;99.90
55036;DHT22;40936;53.008;6.556;2023-06-10T00:43:14;17.00;99.90
55036;DHT22;40936;53.008;6.556;2023-06-10T00:45:40;17.00;99.90
55036;DHT22;40936;53.008;6.556;2023-06-10T00:48:06;17.00;99.90
55036;DHT22;40936;53.008;6.556;2023-06-10T00:50:32;17.00;99.90
55036;DHT22;40936;53.008;6.556;2023-06-10T00:52:59;16.90;99.90
55036;DHT22;40936;53.008;6.556;2023-06-10T00:55:25;16.90;99.90
55036;DHT22;40936;53.008;6.556;2023-06-10T00:57:53;16.90;99.90
55036;DHT22;40936;53.008;6.556;2023-06-10T01:00:19;16.80;99.90
55036;DHT22;40936;53.008;6.556;2023-06-10T01:02:44;16.80;99.90
55036;DHT22;40936;53.008;6.556;2023-06-10T01:05:10;16.80;99.90
55036;DHT22;40936;53.008;6.556;2023-06-10T01:07:47;16.80;99.90
55036;DHT22;40936;53.008;6.556;2023-06-10T01:10:18;16.80;99.90
55036;DHT22;40936;53.008;6.556;2023-06-10T01:13:02;16.70;99.90
55036;DHT22;40936;53.008;6.556;2023-06-10T01:15:31;16.70;99.90
55036;DHT22;40936;53.008;6.556;2023-06-10T01:18:06;16.70;99.90
55036;DHT22;40936;53.008;6.556;2023-06-10T01:20:33;16.60;99.90
55036;DHT22;40936;53.008;6.556;2023-06-10T01:23:00;16.60;99.90
55036;DHT22;40936;53.008;6.556;2023-06-10T01:25:27;16.60;99.90
55036;DHT22;40936;53.008;6.556;2023-06-10T01:31:18;16.60;99.90
55036;DHT22;40936;53.008;6.556;2023-06-10T01:33:51;16.60;99.90
55036;DHT22;40936;53.008;6.556;2023-06-10T01:36:18;16.60;99.90
55036;DHT22;40936;53.008;6.556;2023-06-10T01:38:46;16.50;99.90
55036;DHT22;40936;53.008;6.556;2023-06-10T01:41:17;16.50;99.90
55036;DHT22;40936;53.008;6.556;2023-06-10T01:43:44;16.50;99.90
55036;DHT22;40936;53.008;6.556;2023-06-10T01:46:10;16.50;99.90
55036;DHT22;40936;53.008;6.556;2023-06-10T01:48:37;16.40;99.90
55036;DHT22;40936;53.008;6.556;2023-06-10T01:51:03;16.40;99.90
55036;DHT22;40936;53.008;6.556;2023-06-10T01:53:29;16.30;99.90
55036;DHT22;40936;53.008;6.556;2023-06-10T01:55:55;16.30;99.90
55036;DHT22;40936;53.008;6.556;2023-06-10T01:58:20;16.30;99.90
55036;DHT22;40936;53.008;6.556;2023-06-10T02:00:46;16.20;99.90
55036;DHT22;40936;53.008;6.556;2023-06-10T02:03:12;16.20;99.90
55036;DHT22;40936;53.008;6.556;2023-06-10T02:05:38;16.20;99.90
55036;DHT22;40936;53.008;6.556;2023-06-10T02:08:04;16.20;99.90
55036;DHT22;40936;53.008;6.556;2023-06-10T02:10:30;16.20;99.90
55036;DHT22;40936;53.008;6.556;2023-06-10T02:12:56;16.10;99.90
55036;DHT22;40936;53.008;6.556;2023-06-10T02:15:21;16.10;99.90
55036;DHT22;40936;53.008;6.556;2023-06-10T02:17:47;16.00;99.90
55036;DHT22;40936;53.008;6.556;2023-06-10T02:20:14;16.00;99.90
55036;DHT22;40936;53.008;6.556;2023-06-10T02:22:40;16.00;99.90
55036;DHT22;40936;53.008;6.556;2023-06-10T02:25:06;16.00;99.90
55036;DHT22;40936;53.008;6.556;2023-06-10T02:27:32;16.00;99.90
55036;DHT22;40936;53.008;6.556;2023-06-10T02:29:58;15.90;99.90
55036;DHT22;40936;53.008;6.556;2023-06-10T02:32:23;15.90;99.90
55036;DHT22;40936;53.008;6.556;2023-06-10T02:34:50;15.90;99.90
55036;DHT22;40936;53.008;6.556;2023-06-10T02:37:16;15.80;99.90
55036;DHT22;40936;53.008;6.556;2023-06-10T02:39:42;15.80;99.90
55036;DHT22;40936;53.008;6.556;2023-06-10T02:42:08;15.80;99.90
55036;DHT22;40936;53.008;6.556;2023-06-10T02:44:33;15.80;99.90
55036;DHT22;40936;53.008;6.556;2023-06-10T02:46:59;15.70;99.90
55036;DHT22;40936;53.008;6.556;2023-06-10T02:49:25;15.70;99.90
55036;DHT22;40936;53.008;6.556;2023-06-10T02:51:53;15.60;99.90
55036;DHT22;40936;53.008;6.556;2023-06-10T02:54:22;15.60;99.90
55036;DHT22;40936;53.008;6.556;2023-06-10T02:56:48;15.60;99.90
55036;DHT22;40936;53.008;6.556;2023-06-10T02:59:14;15.60;99.90
55036;DHT22;40936;53.008;6.556;2023-06-10T03:01:40;15.50;99.90
55036;DHT22;40936;53.008;6.556;2023-06-10T03:04:06;15.50;99.90
55036;DHT22;40936;53.008;6.556;2023-06-10T03:06:33;15.50;99.90
55036;DHT22;40936;53.008;6.556;2023-06-10T03:09:00;15.50;99.90
55036;DHT22;40936;53.008;6.556;2023-06-10T03:11:26;15.50;99.90
55036;DHT22;40936;53.008;6.556;2023-06-10T03:13:52;15.40;99.90
55036;DHT22;40936;53.008;6.556;2023-06-10T03:16:19;15.40;99.90
55036;DHT22;40936;53.008;6.556;2023-06-10T03:18:45;15.30;99.90
55036;DHT22;40936;53.008;6.556;2023-06-10T03:21:11;15.30;99.90
55036;DHT22;40936;53.008;6.556;2023-06-10T03:23:37;15.30;99.90
55036;DHT22;40936;53.008;6.556;2023-06-10T03:26:03;15.30;99.90
55036;DHT22;40936;53.008;6.556;2023-06-10T03:28:31;15.30;99.90
55036;DHT22;40936;53.008;6.556;2023-06-10T03:30:57;15.20;99.90
55036;DHT22;40936;53.008;6.556;2023-06-10T03:33:22;15.20;99.90
55036;DHT22;40936;53.008;6.556;2023-06-10T03:35:48;15.20;99.90
55036;DHT22;40936;53.008;6.556;2023-06-10T03:38:14;15.20;99.90
55036;DHT22;40936;53.008;6.556;2023-06-10T03:40:40;15.20;99.90
55036;DHT22;40936;53.008;6.556;2023-06-10T03:43:05;15.20;99.90
55036;DHT22;40936;53.008;6.556;2023-06-10T03:45:31;15.20;99.90
55036;DHT22;40936;53.008;6.556;2023-06-10T03:47:58;15.20;99.90
55036;DHT22;40936;53.008;6.556;2023-06-10T03:50:23;15.20;99.90
55036;DHT22;40936;53.008;6.556;2023-06-10T03:52:50;15.20;99.90
55036;DHT22;40936;53.008;6.556;2023-06-10T03:55:16;15.20;99.90
55036;DHT22;40936;53.008;6.556;2023-06-10T03:57:42;15.10;99.90
55036;DHT22;40936;53.008;6.556;2023-06-10T04:00:09;15.20;99.90
55036;DHT22;40936;53.008;6.556;2023-06-10T04:02:38;15.10;99.90
55036;DHT22;40936;53.008;6.556;2023-06-10T04:05:18;15.10;99.90
55036;DHT22;40936;53.008;6.556;2023-06-10T04:07:44;15.00;99.90
55036;DHT22;40936;53.008;6.556;2023-06-10T04:10:13;15.10;99.90
55036;DHT22;40936;53.008;6.556;2023-06-10T04:12:38;15.10;99.90
55036;DHT22;40936;53.008;6.556;2023-06-10T04:15:05;15.10;99.90
55036;DHT22;40936;53.008;6.556;2023-06-10T04:17:31;15.10;99.90
55036;DHT22;40936;53.008;6.556;2023-06-10T04:19:57;15.10;99.90
55036;DHT22;40936;53.008;6.556;2023-06-10T04:22:23;15.10;99.90
55036;DHT22;40936;53.008;6.556;2023-06-10T04:24:49;15.10;99.90
55036;DHT22;40936;53.008;6.556;2023-06-10T04:27:15;15.10;99.90
55036;DHT22;40936;53.008;6.556;2023-06-10T04:29:41;15.00;99.90
55036;DHT22;40936;53.008;6.556;2023-06-10T04:32:07;15.00;99.90
55036;DHT22;40936;53.008;6.556;2023-06-10T04:34:33;15.10;99.90
55036;DHT22;40936;53.008;6.556;2023-06-10T04:36:59;15.00;99.90
55036;DHT22;40936;53.008;6.556;2023-06-10T04:39:25;15.00;99.90
55036;DHT22;40936;53.008;6.556;2023-06-10T04:41:50;15.00;99.90
55036;DHT22;40936;53.008;6.556;2023-06-10T04:44:16;15.10;99.90
55036;DHT22;40936;53.008;6.556;2023-06-10T04:46:42;15.10;99.90
55036;DHT22;40936;53.008;6.556;2023-06-10T04:49:07;15.10;99.90
55036;DHT22;40936;53.008;6.556;2023-06-10T04:51:33;15.10;99.90
55036;DHT22;40936;53.008;6.556;2023-06-10T04:53:59;15.00;99.90
55036;DHT22;40936;53.008;6.556;2023-06-10T04:56:30;15.00;99.90
55036;DHT22;40936;53.008;6.556;2023-06-10T04:58:59;15.00;99.90
55036;DHT22;40936;53.008;6.556;2023-06-10T05:01:25;15.10;99.90
55036;DHT22;40936;53.008;6.556;2023-06-10T05:03:51;15.10;99.90
55036;DHT22;40936;53.008;6.556;2023-06-10T05:06:17;15.10;99.90
55036;DHT22;40936;53.008;6.556;2023-06-10T05:08:43;15.10;99.90
55036;DHT22;40936;53.008;6.556;2023-06-10T05:11:09;15.10;99.90
55036;DHT22;40936;53.008;6.556;2023-06-10T05:13:34;15.20;99.90
55036;DHT22;40936;53.008;6.556;2023-06-10T05:16:00;15.20;99.90
55036;DHT22;40936;53.008;6.556;2023-06-10T05:18:26;15.20;99.90
55036;DHT22;40936;53.008;6.556;2023-06-10T05:20:52;15.20;99.90
55036;DHT22;40936;53.008;6.556;2023-06-10T05:23:19;15.20;99.90
55036;DHT22;40936;53.008;6.556;2023-06-10T05:25:45;15.30;99.90
55036;DHT22;40936;53.008;6.556;2023-06-10T05:28:11;15.30;99.90
55036;DHT22;40936;53.008;6.556;2023-06-10T05:30:37;15.30;99.90
55036;DHT22;40936;53.008;6.556;2023-06-10T05:33:04;15.30;99.90
55036;DHT22;40936;53.008;6.556;2023-06-10T05:35:30;15.30;99.90
55036;DHT22;40936;53.008;6.556;2023-06-10T05:37:56;15.30;99.90
55036;DHT22;40936;53.008;6.556;2023-06-10T05:40:21;15.30;99.90
55036;DHT22;40936;53.008;6.556;2023-06-10T05:42:47;15.40;99.90
55036;DHT22;40936;53.008;6.556;2023-06-10T05:45:13;15.50;99.90
55036;DHT22;40936;53.008;6.556;2023-06-10T05:47:39;15.50;99.90
55036;DHT22;40936;53.008;6.556;2023-06-10T05:50:06;15.50;99.90
55036;DHT22;40936;53.008;6.556;2023-06-10T05:52:36;15.50;99.90
55036;DHT22;40936;53.008;6.556;2023-06-10T05:55:03;15.50;99.90
55036;DHT22;40936;53.008;6.556;2023-06-10T05:57:29;15.60;99.90
55036;DHT22;40936;53.008;6.556;2023-06-10T05:59:55;15.60;99.90
55036;DHT22;40936;53.008;6.556;2023-06-10T06:02:20;15.70;99.90
55036;DHT22;40936;53.008;6.556;2023-06-10T06:04:46;15.70;99.90
55036;DHT22;40936;53.008;6.556;2023-06-10T06:07:12;15.80;99.90
55036;DHT22;40936;53.008;6.556;2023-06-10T06:09:37;15.80;99.90
55036;DHT22;40936;53.008;6.556;2023-06-10T06:12:03;15.90;99.90
55036;DHT22;40936;53.008;6.556;2023-06-10T06:14:31;16.00;99.90
55036;DHT22;40936;53.008;6.556;2023-06-10T06:16:57;16.00;99.90
55036;DHT22;40936;53.008;6.556;2023-06-10T06:19:23;16.10;99.90
55036;DHT22;40936;53.008;6.556;2023-06-10T06:21:49;16.10;99.90
55036;DHT22;40936;53.008;6.556;2023-06-10T06:24:15;16.20;99.90
55036;DHT22;40936;53.008;6.556;2023-06-10T06:26:41;16.30;99.90
55036;DHT22;40936;53.008;6.556;2023-06-10T06:29:07;16.30;99.90
55036;DHT22;40936;53.008;6.556;2023-06-10T06:31:33;16.40;99.90
55036;DHT22;40936;53.008;6.556;2023-06-10T06:33:58;16.50;99.90
55036;DHT22;40936;53.008;6.556;2023-06-10T06:36:24;16.60;99.90
55036;DHT22;40936;53.008;6.556;2023-06-10T06:38:50;16.60;99.90
55036;DHT22;40936;53.008;6.556;2023-06-10T06:41:15;16.70;99.90
55036;DHT22;40936;53.008;6.556;2023-06-10T06:43:41;16.80;99.90
55036;DHT22;40936;53.008;6.556;2023-06-10T06:46:08;16.90;99.90
55036;DHT22;40936;53.008;6.556;2023-06-10T06:48:34;17.00;99.90
55036;DHT22;40936;53.008;6.556;2023-06-10T06:50:59;17.00;99.90
55036;DHT22;40936;53.008;6.556;2023-06-10T06:53:25;17.10;99.90
55036;DHT22;40936;53.008;6.556;2023-06-10T06:55:51;17.20;99.90
55036;DHT22;40936;53.008;6.556;2023-06-10T06:58:16;17.30;99.90
55036;DHT22;40936;53.008;6.556;2023-06-10T07:00:42;17.40;99.90
55036;DHT22;40936;53.008;6.556;2023-06-10T07:03:08;17.40;99.90
55036;DHT22;40936;53.008;6.556;2023-06-10T07:05:34;17.50;99.90
55036;DHT22;40936;53.008;6.556;2023-06-10T07:07:59;17.60;99.90
55036;DHT22;40936;53.008;6.556;2023-06-10T07:10:25;17.70;99.90
55036;DHT22;40936;53.008;6.556;2023-06-10T07:12:52;17.90;99.90
55036;DHT22;40936;53.008;6.556;2023-06-10T07:15:18;18.20;99.90
55036;DHT22;40936;53.008;6.556;2023-06-10T07:17:44;18.40;99.90
55036;DHT22;40936;53.008;6.556;2023-06-10T07:20:10;18.60;99.90
55036;DHT22;40936;53.008;6.556;2023-06-10T07:22:36;18.90;99.90
55036;DHT22;40936;53.008;6.556;2023-06-10T07:25:04;19.20;99.90
55036;DHT22;40936;53.008;6.556;2023-06-10T07:27:31;19.40;99.90
55036;DHT22;40936;53.008;6.556;2023-06-10T07:29:56;19.60;99.90
55036;DHT22;40936;53.008;6.556;2023-06-10T07:32:22;19.80;99.90
55036;DHT22;40936;53.008;6.556;2023-06-10T07:34:49;20.00;99.90
55036;DHT22;40936;53.008;6.556;2023-06-10T07:37:16;20.10;99.90
55036;DHT22;40936;53.008;6.556;2023-06-10T07:39:41;20.40;99.90
55036;DHT22;40936;53.008;6.556;2023-06-10T07:42:08;20.50;99.90
55036;DHT22;40936;53.008;6.556;2023-06-10T07:44:34;20.70;99.90
55036;DHT22;40936;53.008;6.556;2023-06-10T07:47:00;20.80;99.90
55036;DHT22;40936;53.008;6.556;2023-06-10T07:49:26;21.00;99.90
55036;DHT22;40936;53.008;6.556;2023-06-10T07:51:53;21.20;99.90
55036;DHT22;40936;53.008;6.556;2023-06-10T07:54:19;21.40;99.90
55036;DHT22;40936;53.008;6.556;2023-06-10T07:56:44;21.60;99.90
55036;DHT22;40936;53.008;6.556;2023-06-10T07:59:10;21.70;99.90
55036;DHT22;40936;53.008;6.556;2023-06-10T08:01:36;21.80;99.90
55036;DHT22;40936;53.008;6.556;2023-06-10T08:04:03;22.10;99.90
55036;DHT22;40936;53.008;6.556;2023-06-10T08:06:29;22.20;99.90
55036;DHT22;40936;53.008;6.556;2023-06-10T08:08:55;22.40;99.90
55036;DHT22;40936;53.008;6.556;2023-06-10T08:11:20;22.40;99.90
55036;DHT22;40936;53.008;6.556;2023-06-10T08:13:46;22.60;99.90
55036;DHT22;40936;53.008;6.556;2023-06-10T08:16:12;22.60;99.90
55036;DHT22;40936;53.008;6.556;2023-06-10T08:18:37;22.70;99.90
55036;DHT22;40936;53.008;6.556;2023-06-10T08:21:03;22.90;99.90
55036;DHT22;40936;53.008;6.556;2023-06-10T08:23:29;23.00;99.90
55036;DHT22;40936;53.008;6.556;2023-06-10T08:25:54;23.20;99.90
55036;DHT22;40936;53.008;6.556;2023-06-10T08:28:20;23.40;99.90
55036;DHT22;40936;53.008;6.556;2023-06-10T08:30:46;23.50;99.90
55036;DHT22;40936;53.008;6.556;2023-06-10T08:33:12;23.50;99.90
55036;DHT22;40936;53.008;6.556;2023-06-10T08:35:37;23.80;99.90
55036;DHT22;40936;53.008;6.556;2023-06-10T08:38:03;24.00;99.90
55036;DHT22;40936;53.008;6.556;2023-06-10T08:40:28;24.10;99.90
55036;DHT22;40936;53.008;6.556;2023-06-10T08:43:07;24.20;99.90
55036;DHT22;40936;53.008;6.556;2023-06-10T08:45:36;24.20;99.90
55036;DHT22;40936;53.008;6.556;2023-06-10T08:48:05;24.30;99.90
55036;DHT22;40936;53.008;6.556;2023-06-10T08:50:35;24.50;99.90
55036;DHT22;40936;53.008;6.556;2023-06-10T08:53:02;24.90;99.90
55036;DHT22;40936;53.008;6.556;2023-06-10T08:55:32;24.90;99.90
55036;DHT22;40936;53.008;6.556;2023-06-10T08:58:02;25.00;99.90
55036;DHT22;40936;53.008;6.556;2023-06-10T09:00:28;25.20;99.90
55036;DHT22;40936;53.008;6.556;2023-06-10T09:02:56;25.40;99.90
55036;DHT22;40936;53.008;6.556;2023-06-10T09:05:22;25.50;99.90
55036;DHT22;40936;53.008;6.556;2023-06-10T09:07:48;25.60;99.90
55036;DHT22;40936;53.008;6.556;2023-06-10T09:10:14;25.70;99.90
55036;DHT22;40936;53.008;6.556;2023-06-10T09:12:40;26.10;99.90
55036;DHT22;40936;53.008;6.556;2023-06-10T09:15:06;26.20;99.90
55036;DHT22;40936;53.008;6.556;2023-06-10T09:17:32;26.40;99.90
55036;DHT22;40936;53.008;6.556;2023-06-10T09:19:59;26.20;99.90
55036;DHT22;40936;53.008;6.556;2023-06-10T09:22:25;26.50;99.90
55036;DHT22;40936;53.008;6.556;2023-06-10T09:25:02;26.70;99.90
55036;DHT22;40936;53.008;6.556;2023-06-10T09:27:30;26.70;99.90
55036;DHT22;40936;53.008;6.556;2023-06-10T09:29:56;27.00;99.90
55036;DHT22;40936;53.008;6.556;2023-06-10T09:32:23;27.30;99.90
55036;DHT22;40936;53.008;6.556;2023-06-10T09:34:49;27.40;99.90
55036;DHT22;40936;53.008;6.556;2023-06-10T09:37:23;27.40;99.90
55036;DHT22;40936;53.008;6.556;2023-06-10T09:40:08;27.60;99.90
55036;DHT22;40936;53.008;6.556;2023-06-10T09:42:38;27.50;99.90
55036;DHT22;40936;53.008;6.556;2023-06-10T09:45:05;27.70;99.90
55036;DHT22;40936;53.008;6.556;2023-06-10T09:47:30;28.20;99.90
55036;DHT22;40936;53.008;6.556;2023-06-10T09:49:56;28.50;99.90
55036;DHT22;40936;53.008;6.556;2023-06-10T09:52:27;28.60;99.90
55036;DHT22;40936;53.008;6.556;2023-06-10T09:54:54;28.80;99.90
55036;DHT22;40936;53.008;6.556;2023-06-10T09:57:24;29.20;99.90
55036;DHT22;40936;53.008;6.556;2023-06-10T09:59:52;29.60;99.90
55036;DHT22;40936;53.008;6.556;2023-06-10T10:02:19;29.60;99.90
55036;DHT22;40936;53.008;6.556;2023-06-10T10:04:44;30.00;99.90
55036;DHT22;40936;53.008;6.556;2023-06-10T10:07:11;30.10;99.90
55036;DHT22;40936;53.008;6.556;2023-06-10T10:09:37;30.30;99.90
55036;DHT22;40936;53.008;6.556;2023-06-10T10:12:10;30.60;99.90
55036;DHT22;40936;53.008;6.556;2023-06-10T10:14:38;31.00;99.90
55036;DHT22;40936;53.008;6.556;2023-06-10T10:17:10;31.20;99.90
55036;DHT22;40936;53.008;6.556;2023-06-10T10:19:53;31.30;99.90
55036;DHT22;40936;53.008;6.556;2023-06-10T10:22:26;31.30;99.90
55036;DHT22;40936;53.008;6.556;2023-06-10T10:24:57;31.50;99.90
55036;DHT22;40936;53.008;6.556;2023-06-10T10:27:27;31.90;99.90
55036;DHT22;40936;53.008;6.556;2023-06-10T10:29:54;32.30;99.90
55036;DHT22;40936;53.008;6.556;2023-06-10T10:32:29;32.60;99.90
55036;DHT22;40936;53.008;6.556;2023-06-10T10:35:17;32.90;99.90
55036;DHT22;40936;53.008;6.556;2023-06-10T10:37:44;33.10;99.90
55036;DHT22;40936;53.008;6.556;2023-06-10T10:40:11;33.60;99.90
55036;DHT22;40936;53.008;6.556;2023-06-10T10:42:38;34.20;99.90
55036;DHT22;40936;53.008;6.556;2023-06-10T10:45:04;34.50;99.90
55036;DHT22;40936;53.008;6.556;2023-06-10T10:47:30;34.80;99.90
55036;DHT22;40936;53.008;6.556;2023-06-10T10:49:58;35.50;99.90
55036;DHT22;40936;53.008;6.556;2023-06-10T10:52:43;35.80;99.90
55036;DHT22;40936;53.008;6.556;2023-06-10T10:55:15;36.10;99.90
55036;DHT22;40936;53.008;6.556;2023-06-10T10:57:40;36.30;99.90
55036;DHT22;40936;53.008;6.556;2023-06-10T11:00:06;37.00;99.90
55036;DHT22;40936;53.008;6.556;2023-06-10T11:05:09;36.90;99.90
55036;DHT22;40936;53.008;6.556;2023-06-10T11:07:35;37.40;99.90
55036;DHT22;40936;53.008;6.556;2023-06-10T11:10:09;38.00;99.90
55036;DHT22;40936;53.008;6.556;2023-06-10T11:12:54;38.30;99.90
55036;DHT22;40936;53.008;6.556;2023-06-10T11:15:24;38.70;99.90
55036;DHT22;40936;53.008;6.556;2023-06-10T11:18:13;39.30;99.90
55036;DHT22;40936;53.008;6.556;2023-06-10T11:20:45;39.40;99.90
55036;DHT22;40936;53.008;6.556;2023-06-10T11:26:31;40.10;99.90
55036;DHT22;40936;53.008;6.556;2023-06-10T11:31:24;40.20;99.90
55036;DHT22;40936;53.008;6.556;2023-06-10T11:33:53;40.20;99.90
55036;DHT22;40936;53.008;6.556;2023-06-10T11:36:20;40.50;99.90
55036;DHT22;40936;53.008;6.556;2023-06-10T11:38:46;40.80;99.90
55036;DHT22;40936;53.008;6.556;2023-06-10T11:41:12;41.00;99.90
55036;DHT22;40936;53.008;6.556;2023-06-10T11:43:45;40.90;99.90
55036;DHT22;40936;53.008;6.556;2023-06-10T11:46:12;41.10;99.90
55036;DHT22;40936;53.008;6.556;2023-06-10T11:48:38;41.40;99.90
55036;DHT22;40936;53.008;6.556;2023-06-10T11:51:07;41.70;99.90
55036;DHT22;40936;53.008;6.556;2023-06-10T11:53:33;42.00;99.90
55036;DHT22;40936;53.008;6.556;2023-06-10T11:55:59;42.00;99.90
55036;DHT22;40936;53.008;6.556;2023-06-10T11:58:25;41.70;99.90
55036;DHT22;40936;53.008;6.556;2023-06-10T12:00:52;41.60;99.90
55036;DHT22;40936;53.008;6.556;2023-06-10T12:03:19;41.80;99.90
55036;DHT22;40936;53.008;6.556;2023-06-10T12:06:02;41.80;99.90
55036;DHT22;40936;53.008;6.556;2023-06-10T12:08:28;42.10;99.90
55036;DHT22;40936;53.008;6.556;2023-06-10T12:10:55;42.20;99.90
55036;DHT22;40936;53.008;6.556;2023-06-10T12:13:21;42.00;99.90
55036;DHT22;40936;53.008;6.556;2023-06-10T12:15:47;42.00;99.90
55036;DHT22;40936;53.008;6.556;2023-06-10T12:20:43;41.70;99.90
55036;DHT22;40936;53.008;6.556;2023-06-10T12:23:13;41.70;99.90
55036;DHT22;40936;53.008;6.556;2023-06-10T12:25:39;41.20;99.90
55036;DHT22;40936;53.008;6.556;2023-06-10T12:28:05;40.80;99.90
55036;DHT22;40936;53.008;6.556;2023-06-10T12:30:34;40.50;99.90
55036;DHT22;40936;53.008;6.556;2023-06-10T12:32:59;39.90;99.90
55036;DHT22;40936;53.008;6.556;2023-06-10T12:35:27;38.80;99.90
55036;DHT22;40936;53.008;6.556;2023-06-10T12:37:58;37.10;99.90
55036;DHT22;40936;53.008;6.556;2023-06-10T12:40:29;35.80;99.90
55036;DHT22;40936;53.008;6.556;2023-06-10T12:42:55;34.80;99.90
55036;DHT22;40936;53.008;6.556;2023-06-10T12:45:32;34.20;99.90
55036;DHT22;40936;53.008;6.556;2023-06-10T12:48:32;33.50;99.90
55036;DHT22;40936;53.008;6.556;2023-06-10T12:50:58;33.00;99.90
55036;DHT22;40936;53.008;6.556;2023-06-10T12:53:25;32.40;99.90
55036;DHT22;40936;53.008;6.556;2023-06-10T12:55:54;32.00;99.90
55036;DHT22;40936;53.008;6.556;2023-06-10T12:58:21;31.50;99.90
55036;DHT22;40936;53.008;6.556;2023-06-10T13:00:49;31.40;99.90
55036;DHT22;40936;53.008;6.556;2023-06-10T13:03:17;31.10;99.90
55036;DHT22;40936;53.008;6.556;2023-06-10T13:05:43;30.80;99.90
55036;DHT22;40936;53.008;6.556;2023-06-10T13:08:09;30.60;99.90
55036;DHT22;40936;53.008;6.556;2023-06-10T13:10:38;30.60;99.90
55036;DHT22;40936;53.008;6.556;2023-06-10T13:13:04;30.40;99.90
55036;DHT22;40936;53.008;6.556;2023-06-10T13:15:32;30.30;99.90
55036;DHT22;40936;53.008;6.556;2023-06-10T13:18:05;30.20;99.90
55036;DHT22;40936;53.008;6.556;2023-06-10T13:20:31;30.10;99.90
55036;DHT22;40936;53.008;6.556;2023-06-10T13:22:56;29.90;99.90
55036;DHT22;40936;53.008;6.556;2023-06-10T13:25:22;29.80;99.90
55036;DHT22;40936;53.008;6.556;2023-06-10T13:27:48;29.70;99.90
55036;DHT22;40936;53.008;6.556;2023-06-10T13:30:14;29.70;99.90
55036;DHT22;40936;53.008;6.556;2023-06-10T13:32:40;29.50;99.90
55036;DHT22;40936;53.008;6.556;2023-06-10T13:35:06;29.60;99.90
55036;DHT22;40936;53.008;6.556;2023-06-10T13:37:32;29.40;99.90
55036;DHT22;40936;53.008;6.556;2023-06-10T13:39:59;29.40;99.90
55036;DHT22;40936;53.008;6.556;2023-06-10T13:42:25;29.20;99.90
55036;DHT22;40936;53.008;6.556;2023-06-10T13:44:54;29.20;99.90
55036;DHT22;40936;53.008;6.556;2023-06-10T13:47:22;29.10;99.90
55036;DHT22;40936;53.008;6.556;2023-06-10T13:49:47;29.00;99.90
55036;DHT22;40936;53.008;6.556;2023-06-10T13:52:13;28.80;99.90
55036;DHT22;40936;53.008;6.556;2023-06-10T13:54:38;28.40;99.90
55036;DHT22;40936;53.008;6.556;2023-06-10T13:57:04;28.20;99.90
55036;DHT22;40936;53.008;6.556;2023-06-10T13:59:30;28.10;99.90
55036;DHT22;40936;53.008;6.556;2023-06-10T14:01:56;28.20;99.90
55036;DHT22;40936;53.008;6.556;2023-06-10T14:04:22;28.30;99.90
55036;DHT22;40936;53.008;6.556;2023-06-10T14:06:48;28.40;99.90
55036;DHT22;40936;53.008;6.556;2023-06-10T14:09:14;28.40;99.90
55036;DHT22;40936;53.008;6.556;2023-06-10T14:11:40;28.50;99.90
55036;DHT22;40936;53.008;6.556;2023-06-10T14:14:05;28.50;99.90
55036;DHT22;40936;53.008;6.556;2023-06-10T14:16:31;28.60;99.90
55036;DHT22;40936;53.008;6.556;2023-06-10T14:18:57;28.60;99.90
55036;DHT22;40936;53.008;6.556;2023-06-10T14:21:23;28.60;99.90
55036;DHT22;40936;53.008;6.556;2023-06-10T14:23:48;28.70;99.90
55036;DHT22;40936;53.008;6.556;2023-06-10T14:26:15;28.70;99.90
55036;DHT22;40936;53.008;6.556;2023-06-10T14:28:41;28.70;99.90
55036;DHT22;40936;53.008;6.556;2023-06-10T14:31:06;28.80;99.90
55036;DHT22;40936;53.008;6.556;2023-06-10T14:33:33;28.70;99.90
55036;DHT22;40936;53.008;6.556;2023-06-10T14:35:59;28.80;99.90
55036;DHT22;40936;53.008;6.556;2023-06-10T14:38:24;28.80;99.90
55036;DHT22;40936;53.008;6.556;2023-06-10T14:40:51;28.70;99.90
55036;DHT22;40936;53.008;6.556;2023-06-10T14:43:17;28.80;99.90
55036;DHT22;40936;53.008;6.556;2023-06-10T14:45:43;29.00;99.90
55036;DHT22;40936;53.008;6.556;2023-06-10T14:48:10;29.10;99.90
55036;DHT22;40936;53.008;6.556;2023-06-10T14:50:36;29.30;99.90
55036;DHT22;40936;53.008;6.556;2023-06-10T14:53:03;29.40;99.90
55036;DHT22;40936;53.008;6.556;2023-06-10T14:55:28;29.40;99.90
55036;DHT22;40936;53.008;6.556;2023-06-10T14:57:54;29.40;99.90
55036;DHT22;40936;53.008;6.556;2023-06-10T15:00:21;29.80;99.90
55036;DHT22;40936;53.008;6.556;2023-06-10T15:02:49;30.10;99.90
55036;DHT22;40936;53.008;6.556;2023-06-10T15:05:16;30.40;99.90
55036;DHT22;40936;53.008;6.556;2023-06-10T15:07:42;30.70;99.90
55036;DHT22;40936;53.008;6.556;2023-06-10T15:10:09;31.10;99.90
55036;DHT22;40936;53.008;6.556;2023-06-10T15:12:35;31.90;99.90
55036;DHT22;40936;53.008;6.556;2023-06-10T15:15:01;32.70;99.90
55036;DHT22;40936;53.008;6.556;2023-06-10T15:17:27;33.40;99.90
55036;DHT22;40936;53.008;6.556;2023-06-10T15:19:53;33.90;99.90
55036;DHT22;40936;53.008;6.556;2023-06-10T15:22:19;34.50;99.90
55036;DHT22;40936;53.008;6.556;2023-06-10T15:24:44;35.00;99.90
55036;DHT22;40936;53.008;6.556;2023-06-10T15:27:10;35.10;99.90
55036;DHT22;40936;53.008;6.556;2023-06-10T15:29:36;35.40;99.90
55036;DHT22;40936;53.008;6.556;2023-06-10T15:32:02;35.30;99.90
55036;DHT22;40936;53.008;6.556;2023-06-10T15:34:27;35.50;99.90
55036;DHT22;40936;53.008;6.556;2023-06-10T15:36:53;35.70;99.90
55036;DHT22;40936;53.008;6.556;2023-06-10T15:39:19;35.60;99.90
55036;DHT22;40936;53.008;6.556;2023-06-10T15:41:45;35.80;99.90
55036;DHT22;40936;53.008;6.556;2023-06-10T15:44:11;35.60;99.90